sensor_id;sensor_type;location;lat;lon;timestamp;P1;durP1;ratioP1;P2;durP2;ratioP2
20443;SDS011;10381;53.730;10.010;2022-09-13T00:00:42;15.10;;;13.50;;
20443;SDS011;10381;53.730;10.010;2022-09-13T00:04:43;15.60;;;13.82;;
20443;SDS011;10381;53.730;10.010;2022-09-13T00:08:43;15.27;;;13.63;;
20443;SDS011;10381;53.730;10.010;2022-09-13T00:12:44;15.90;;;12.73;;
20443;SDS011;10381;53.730;10.010;2022-09-13T00:16:44;15.93;;;13.40;;
20443;SDS011;10381;53.730;10.010;2022-09-13T00:20:44;15.83;;;13.73;;
20443;SDS011;10381;53.730;10.010;2022-09-13T00:24:45;22.55;;;13.82;;
20443;SDS011;10381;53.730;10.010;2022-09-13T00:28:47;16.13;;;14.55;;
20443;SDS011;10381;53.730;10.010;2022-09-13T00:32:50;23.70;;;18.05;;
20443;SDS011;10381;53.730;10.010;2022-09-13T00:36:50;61.60;;;56.13;;
20443;SDS011;10381;53.730;10.010;2022-09-13T00:40:51;113.57;;;104.30;;
20443;SDS011;10381;53.730;10.010;2022-09-13T00:44:58;253.97;;;234.90;;
20443;SDS011;10381;53.730;10.010;2022-09-13T00:49:15;441.77;;;407.33;;
20443;SDS011;10381;53.730;10.010;2022-09-13T00:53:21;599.47;;;550.45;;
20443;SDS011;10381;53.730;10.010;2022-09-13T00:57:25;652.47;;;599.45;;
20443;SDS011;10381;53.730;10.010;2022-09-13T01:01:29;643.72;;;590.72;;
20443;SDS011;10381;53.730;10.010;2022-09-13T01:05:37;643.63;;;590.60;;
20443;SDS011;10381;53.730;10.010;2022-09-13T01:09:43;639.67;;;587.20;;
20443;SDS011;10381;53.730;10.010;2022-09-13T01:13:46;608.00;;;557.47;;
20443;SDS011;10381;53.730;10.010;2022-09-13T01:17:47;606.92;;;556.83;;
20443;SDS011;10381;53.730;10.010;2022-09-13T01:40:01;464.00;;;428.10;;
20443;SDS011;10381;53.730;10.010;2022-09-13T01:44:07;421.58;;;389.17;;
20443;SDS011;10381;53.730;10.010;2022-09-13T01:48:20;450.30;;;415.88;;
20443;SDS011;10381;53.730;10.010;2022-09-13T01:52:44;416.63;;;384.25;;
20443;SDS011;10381;53.730;10.010;2022-09-13T02:01:33;382.17;;;352.35;;
20443;SDS011;10381;53.730;10.010;2022-09-13T02:05:46;385.52;;;355.80;;
20443;SDS011;10381;53.730;10.010;2022-09-13T02:09:54;349.45;;;321.83;;
20443;SDS011;10381;53.730;10.010;2022-09-13T02:18:11;349.88;;;322.67;;
20443;SDS011;10381;53.730;10.010;2022-09-13T02:22:17;339.63;;;313.67;;
20443;SDS011;10381;53.730;10.010;2022-09-13T02:26:24;309.48;;;285.63;;
20443;SDS011;10381;53.730;10.010;2022-09-13T02:30:27;297.05;;;274.30;;
20443;SDS011;10381;53.730;10.010;2022-09-13T02:34:31;239.88;;;221.43;;
20443;SDS011;10381;53.730;10.010;2022-09-13T02:38:42;235.15;;;216.18;;
20443;SDS011;10381;53.730;10.010;2022-09-13T02:42:49;208.80;;;192.77;;
20443;SDS011;10381;53.730;10.010;2022-09-13T02:51:06;89.60;;;81.28;;
20443;SDS011;10381;53.730;10.010;2022-09-13T02:55:21;53.90;;;48.40;;
20443;SDS011;10381;53.730;10.010;2022-09-13T02:59:28;47.13;;;42.65;;
20443;SDS011;10381;53.730;10.010;2022-09-13T03:03:28;45.93;;;41.27;;
20443;SDS011;10381;53.730;10.010;2022-09-13T03:07:29;48.37;;;43.57;;
20443;SDS011;10381;53.730;10.010;2022-09-13T03:11:34;55.03;;;49.88;;
20443;SDS011;10381;53.730;10.010;2022-09-13T03:16:19;53.42;;;48.20;;
20443;SDS011;10381;53.730;10.010;2022-09-13T03:29:25;37.95;;;34.03;;
20443;SDS011;10381;53.730;10.010;2022-09-13T03:38:13;35.58;;;31.40;;
20443;SDS011;10381;53.730;10.010;2022-09-13T03:42:21;34.55;;;30.88;;
20443;SDS011;10381;53.730;10.010;2022-09-13T03:46:29;32.80;;;28.45;;
20443;SDS011;10381;53.730;10.010;2022-09-13T03:50:33;33.95;;;30.55;;
20443;SDS011;10381;53.730;10.010;2022-09-13T03:54:35;35.70;;;30.42;;
20443;SDS011;10381;53.730;10.010;2022-09-13T03:58:36;36.45;;;31.08;;
20443;SDS011;10381;53.730;10.010;2022-09-13T04:02:36;42.80;;;35.70;;
20443;SDS011;10381;53.730;10.010;2022-09-13T04:06:37;40.57;;;32.20;;
20443;SDS011;10381;53.730;10.010;2022-09-13T04:10:38;40.67;;;35.97;;
20443;SDS011;10381;53.730;10.010;2022-09-13T04:14:39;50.88;;;39.00;;
20443;SDS011;10381;53.730;10.010;2022-09-13T04:18:40;62.17;;;55.85;;
20443;SDS011;10381;53.730;10.010;2022-09-13T04:22:41;152.27;;;137.73;;
20443;SDS011;10381;53.730;10.010;2022-09-13T04:26:43;275.63;;;251.97;;
20443;SDS011;10381;53.730;10.010;2022-09-13T04:30:44;307.70;;;280.05;;
20443;SDS011;10381;53.730;10.010;2022-09-13T04:34:46;298.63;;;271.88;;
20443;SDS011;10381;53.730;10.010;2022-09-13T04:38:46;279.20;;;254.13;;
20443;SDS011;10381;53.730;10.010;2022-09-13T04:42:47;281.30;;;255.83;;
20443;SDS011;10381;53.730;10.010;2022-09-13T04:46:47;266.73;;;242.63;;
20443;SDS011;10381;53.730;10.010;2022-09-13T04:50:48;246.40;;;223.90;;
20443;SDS011;10381;53.730;10.010;2022-09-13T04:54:48;229.20;;;207.77;;
20443;SDS011;10381;53.730;10.010;2022-09-13T04:58:52;215.95;;;195.30;;
20443;SDS011;10381;53.730;10.010;2022-09-13T05:02:54;206.93;;;186.82;;
20443;SDS011;10381;53.730;10.010;2022-09-13T05:06:55;187.75;;;168.52;;
20443;SDS011;10381;53.730;10.010;2022-09-13T05:10:58;183.07;;;163.75;;
20443;SDS011;10381;53.730;10.010;2022-09-13T05:14:58;167.27;;;149.38;;
20443;SDS011;10381;53.730;10.010;2022-09-13T05:18:59;161.00;;;143.83;;
20443;SDS011;10381;53.730;10.010;2022-09-13T05:22:59;156.40;;;139.43;;
20443;SDS011;10381;53.730;10.010;2022-09-13T05:27:00;156.57;;;139.27;;
20443;SDS011;10381;53.730;10.010;2022-09-13T05:31:01;152.27;;;125.10;;
20443;SDS011;10381;53.730;10.010;2022-09-13T05:35:03;144.98;;;128.93;;
20443;SDS011;10381;53.730;10.010;2022-09-13T05:39:04;141.73;;;126.47;;
20443;SDS011;10381;53.730;10.010;2022-09-13T05:43:05;143.15;;;127.22;;
20443;SDS011;10381;53.730;10.010;2022-09-13T05:47:05;145.15;;;127.40;;
20443;SDS011;10381;53.730;10.010;2022-09-13T05:51:09;150.15;;;125.90;;
20443;SDS011;10381;53.730;10.010;2022-09-13T05:55:14;156.45;;;128.10;;
20443;SDS011;10381;53.730;10.010;2022-09-13T05:59:14;142.68;;;124.95;;
20443;SDS011;10381;53.730;10.010;2022-09-13T06:03:15;142.27;;;115.97;;
20443;SDS011;10381;53.730;10.010;2022-09-13T06:07:15;144.83;;;110.77;;
20443;SDS011;10381;53.730;10.010;2022-09-13T06:11:15;135.93;;;104.00;;
20443;SDS011;10381;53.730;10.010;2022-09-13T06:15:16;131.70;;;102.00;;
20443;SDS011;10381;53.730;10.010;2022-09-13T06:19:16;133.33;;;95.53;;
20443;SDS011;10381;53.730;10.010;2022-09-13T06:23:16;120.53;;;90.35;;
20443;SDS011;10381;53.730;10.010;2022-09-13T06:27:17;122.30;;;87.97;;
20443;SDS011;10381;53.730;10.010;2022-09-13T06:31:19;123.67;;;82.93;;
20443;SDS011;10381;53.730;10.010;2022-09-13T06:35:21;118.68;;;76.63;;
20443;SDS011;10381;53.730;10.010;2022-09-13T06:39:21;109.68;;;68.05;;
20443;SDS011;10381;53.730;10.010;2022-09-13T06:43:22;98.97;;;56.77;;
20443;SDS011;10381;53.730;10.010;2022-09-13T06:47:22;81.22;;;47.80;;
20443;SDS011;10381;53.730;10.010;2022-09-13T06:51:23;71.18;;;40.88;;
20443;SDS011;10381;53.730;10.010;2022-09-13T06:55:24;77.95;;;46.58;;
20443;SDS011;10381;53.730;10.010;2022-09-13T06:59:24;74.67;;;45.63;;
20443;SDS011;10381;53.730;10.010;2022-09-13T07:03:26;79.78;;;47.70;;
20443;SDS011;10381;53.730;10.010;2022-09-13T07:07:26;73.50;;;45.90;;
20443;SDS011;10381;53.730;10.010;2022-09-13T07:11:34;61.25;;;40.83;;
20443;SDS011;10381;53.730;10.010;2022-09-13T07:15:35;61.97;;;45.78;;
20443;SDS011;10381;53.730;10.010;2022-09-13T07:19:36;70.43;;;46.87;;
20443;SDS011;10381;53.730;10.010;2022-09-13T07:23:37;52.80;;;37.57;;
20443;SDS011;10381;53.730;10.010;2022-09-13T07:27:38;58.10;;;36.83;;
20443;SDS011;10381;53.730;10.010;2022-09-13T07:31:40;49.40;;;36.47;;
20443;SDS011;10381;53.730;10.010;2022-09-13T07:35:42;47.65;;;36.45;;
20443;SDS011;10381;53.730;10.010;2022-09-13T07:39:42;51.33;;;39.77;;
20443;SDS011;10381;53.730;10.010;2022-09-13T07:43:42;34.07;;;30.37;;
20443;SDS011;10381;53.730;10.010;2022-09-13T07:47:43;39.13;;;30.27;;
20443;SDS011;10381;53.730;10.010;2022-09-13T07:51:44;36.55;;;32.58;;
20443;SDS011;10381;53.730;10.010;2022-09-13T07:55:45;37.33;;;27.38;;
20443;SDS011;10381;53.730;10.010;2022-09-13T07:59:45;38.90;;;34.43;;
20443;SDS011;10381;53.730;10.010;2022-09-13T08:03:52;28.80;;;25.77;;
20443;SDS011;10381;53.730;10.010;2022-09-13T08:07:53;27.92;;;24.95;;
20443;SDS011;10381;53.730;10.010;2022-09-13T08:11:53;26.53;;;23.97;;
20443;SDS011;10381;53.730;10.010;2022-09-13T08:15:54;19.53;;;17.47;;
20443;SDS011;10381;53.730;10.010;2022-09-13T08:19:55;14.43;;;11.98;;
20443;SDS011;10381;53.730;10.010;2022-09-13T08:23:55;13.70;;;11.07;;
20443;SDS011;10381;53.730;10.010;2022-09-13T08:27:59;15.52;;;11.80;;
20443;SDS011;10381;53.730;10.010;2022-09-13T08:32:13;12.88;;;11.52;;
20443;SDS011;10381;53.730;10.010;2022-09-13T08:36:14;10.20;;;9.40;;
20443;SDS011;10381;53.730;10.010;2022-09-13T08:40:15;12.00;;;10.95;;
20443;SDS011;10381;53.730;10.010;2022-09-13T08:48:32;10.05;;;9.25;;
20443;SDS011;10381;53.730;10.010;2022-09-13T09:05:45;11.20;;;8.50;;
20443;SDS011;10381;53.730;10.010;2022-09-13T09:09:51;11.35;;;8.88;;
20443;SDS011;10381;53.730;10.010;2022-09-13T09:14:06;9.40;;;8.50;;
20443;SDS011;10381;53.730;10.010;2022-09-13T09:18:20;11.93;;;8.70;;
20443;SDS011;10381;53.730;10.010;2022-09-13T09:22:23;9.02;;;8.23;;
20443;SDS011;10381;53.730;10.010;2022-09-13T09:26:31;9.27;;;8.43;;
20443;SDS011;10381;53.730;10.010;2022-09-13T09:30:36;9.48;;;8.52;;
20443;SDS011;10381;53.730;10.010;2022-09-13T09:34:47;9.57;;;8.77;;
20443;SDS011;10381;53.730;10.010;2022-09-13T09:38:50;17.67;;;8.77;;
20443;SDS011;10381;53.730;10.010;2022-09-13T09:42:50;10.48;;;9.40;;
20443;SDS011;10381;53.730;10.010;2022-09-13T09:46:54;10.75;;;8.93;;
20443;SDS011;10381;53.730;10.010;2022-09-13T09:50:58;8.30;;;7.55;;
20443;SDS011;10381;53.730;10.010;2022-09-13T09:55:00;7.97;;;6.72;;
20443;SDS011;10381;53.730;10.010;2022-09-13T09:59:23;8.38;;;7.68;;
20443;SDS011;10381;53.730;10.010;2022-09-13T10:03:28;10.93;;;7.75;;
20443;SDS011;10381;53.730;10.010;2022-09-13T10:07:34;8.77;;;7.85;;
20443;SDS011;10381;53.730;10.010;2022-09-13T10:11:53;11.57;;;7.55;;
20443;SDS011;10381;53.730;10.010;2022-09-13T10:16:06;10.70;;;7.93;;
20443;SDS011;10381;53.730;10.010;2022-09-13T10:20:24;7.35;;;6.65;;
20443;SDS011;10381;53.730;10.010;2022-09-13T10:24:25;12.43;;;6.93;;
20443;SDS011;10381;53.730;10.010;2022-09-13T10:28:26;14.90;;;7.88;;
20443;SDS011;10381;53.730;10.010;2022-09-13T10:32:28;9.68;;;7.78;;
20443;SDS011;10381;53.730;10.010;2022-09-13T10:36:30;9.07;;;6.97;;
20443;SDS011;10381;53.730;10.010;2022-09-13T10:40:33;7.07;;;6.45;;
20443;SDS011;10381;53.730;10.010;2022-09-13T10:48:46;6.25;;;5.47;;
20443;SDS011;10381;53.730;10.010;2022-09-13T10:52:55;15.95;;;5.80;;
20443;SDS011;10381;53.730;10.010;2022-09-13T10:56:56;8.88;;;6.50;;
20443;SDS011;10381;53.730;10.010;2022-09-13T11:01:03;16.55;;;7.68;;
20443;SDS011;10381;53.730;10.010;2022-09-13T11:06:08;9.63;;;6.75;;
20443;SDS011;10381;53.730;10.010;2022-09-13T11:10:13;13.88;;;7.30;;
20443;SDS011;10381;53.730;10.010;2022-09-13T11:14:21;7.72;;;6.60;;
20443;SDS011;10381;53.730;10.010;2022-09-13T11:22:49;11.32;;;6.13;;
20443;SDS011;10381;53.730;10.010;2022-09-13T11:35:33;6.32;;;5.78;;
20443;SDS011;10381;53.730;10.010;2022-09-13T11:44:10;17.42;;;6.22;;
20443;SDS011;10381;53.730;10.010;2022-09-13T11:48:20;7.97;;;5.85;;
20443;SDS011;10381;53.730;10.010;2022-09-13T11:53:01;6.93;;;6.32;;
20443;SDS011;10381;53.730;10.010;2022-09-13T11:57:14;8.88;;;6.10;;
20443;SDS011;10381;53.730;10.010;2022-09-13T12:01:27;9.68;;;6.32;;
20443;SDS011;10381;53.730;10.010;2022-09-13T12:05:38;7.97;;;6.30;;
20443;SDS011;10381;53.730;10.010;2022-09-13T12:09:50;8.35;;;6.05;;
20443;SDS011;10381;53.730;10.010;2022-09-13T12:13:57;6.88;;;5.53;;
20443;SDS011;10381;53.730;10.010;2022-09-13T12:18:02;7.07;;;4.80;;
20443;SDS011;10381;53.730;10.010;2022-09-13T12:22:09;6.38;;;5.47;;
20443;SDS011;10381;53.730;10.010;2022-09-13T12:26:14;5.80;;;5.30;;
20443;SDS011;10381;53.730;10.010;2022-09-13T12:30:21;6.50;;;4.70;;
20443;SDS011;10381;53.730;10.010;2022-09-13T12:34:29;7.03;;;5.53;;
20443;SDS011;10381;53.730;10.010;2022-09-13T13:00:33;5.30;;;4.72;;
20443;SDS011;10381;53.730;10.010;2022-09-13T13:04:45;10.57;;;5.53;;
20443;SDS011;10381;53.730;10.010;2022-09-13T13:08:56;8.20;;;5.25;;
20443;SDS011;10381;53.730;10.010;2022-09-13T13:13:12;5.70;;;5.10;;
20443;SDS011;10381;53.730;10.010;2022-09-13T13:21:39;8.35;;;5.57;;
20443;SDS011;10381;53.730;10.010;2022-09-13T13:25:52;6.78;;;5.50;;
20443;SDS011;10381;53.730;10.010;2022-09-13T13:38:49;9.05;;;6.07;;
20443;SDS011;10381;53.730;10.010;2022-09-13T13:43:06;12.10;;;5.78;;
20443;SDS011;10381;53.730;10.010;2022-09-13T13:51:31;7.32;;;5.72;;
20443;SDS011;10381;53.730;10.010;2022-09-13T13:55:42;6.07;;;5.63;;
20443;SDS011;10381;53.730;10.010;2022-09-13T13:59:46;9.02;;;5.28;;
20443;SDS011;10381;53.730;10.010;2022-09-13T14:04:08;11.60;;;4.97;;
20443;SDS011;10381;53.730;10.010;2022-09-13T14:17:26;6.85;;;5.40;;
20443;SDS011;10381;53.730;10.010;2022-09-13T14:21:39;5.15;;;4.75;;
20443;SDS011;10381;53.730;10.010;2022-09-13T14:25:41;8.73;;;5.15;;
20443;SDS011;10381;53.730;10.010;2022-09-13T14:29:49;5.63;;;4.97;;
20443;SDS011;10381;53.730;10.010;2022-09-13T14:33:52;5.80;;;4.40;;
20443;SDS011;10381;53.730;10.010;2022-09-13T14:37:52;6.30;;;5.20;;
20443;SDS011;10381;53.730;10.010;2022-09-13T14:41:57;7.47;;;5.00;;
20443;SDS011;10381;53.730;10.010;2022-09-13T14:50:31;11.18;;;5.10;;
20443;SDS011;10381;53.730;10.010;2022-09-13T14:54:39;8.60;;;4.55;;
20443;SDS011;10381;53.730;10.010;2022-09-13T14:58:45;12.70;;;5.72;;
20443;SDS011;10381;53.730;10.010;2022-09-13T15:02:52;16.80;;;5.80;;
20443;SDS011;10381;53.730;10.010;2022-09-13T15:07:22;14.73;;;5.00;;
20443;SDS011;10381;53.730;10.010;2022-09-13T15:11:31;10.60;;;5.53;;
20443;SDS011;10381;53.730;10.010;2022-09-13T15:15:34;5.38;;;4.90;;
20443;SDS011;10381;53.730;10.010;2022-09-13T15:20:19;14.88;;;5.15;;
20443;SDS011;10381;53.730;10.010;2022-09-13T15:24:04;10.45;;;5.63;;
20443;SDS011;10381;53.730;10.010;2022-09-13T15:28:04;7.68;;;5.32;;
20443;SDS011;10381;53.730;10.010;2022-09-13T15:32:04;15.37;;;5.53;;
20443;SDS011;10381;53.730;10.010;2022-09-13T15:36:25;9.85;;;5.57;;
20443;SDS011;10381;53.730;10.010;2022-09-13T15:40:39;10.38;;;6.38;;
20443;SDS011;10381;53.730;10.010;2022-09-13T15:44:42;10.85;;;5.80;;
20443;SDS011;10381;53.730;10.010;2022-09-13T15:49:02;8.05;;;5.63;;
20443;SDS011;10381;53.730;10.010;2022-09-13T15:53:04;5.93;;;5.05;;
20443;SDS011;10381;53.730;10.010;2022-09-13T15:57:23;7.28;;;4.95;;
20443;SDS011;10381;53.730;10.010;2022-09-13T16:01:25;10.02;;;4.95;;
20443;SDS011;10381;53.730;10.010;2022-09-13T16:05:26;6.57;;;5.93;;
20443;SDS011;10381;53.730;10.010;2022-09-13T16:09:26;9.57;;;6.03;;
20443;SDS011;10381;53.730;10.010;2022-09-13T16:13:27;10.83;;;5.33;;
20443;SDS011;10381;53.730;10.010;2022-09-13T16:17:27;11.50;;;5.43;;
20443;SDS011;10381;53.730;10.010;2022-09-13T16:21:27;6.22;;;5.63;;
20443;SDS011;10381;53.730;10.010;2022-09-13T16:25:28;14.80;;;5.30;;
20443;SDS011;10381;53.730;10.010;2022-09-13T16:29:30;6.20;;;5.55;;
20443;SDS011;10381;53.730;10.010;2022-09-13T16:33:30;7.70;;;5.47;;
20443;SDS011;10381;53.730;10.010;2022-09-13T16:37:30;5.80;;;5.30;;
20443;SDS011;10381;53.730;10.010;2022-09-13T16:41:31;8.07;;;5.20;;
20443;SDS011;10381;53.730;10.010;2022-09-13T16:45:31;8.27;;;4.70;;
20443;SDS011;10381;53.730;10.010;2022-09-13T16:49:31;6.03;;;4.87;;
20443;SDS011;10381;53.730;10.010;2022-09-13T16:53:32;6.38;;;5.28;;
20443;SDS011;10381;53.730;10.010;2022-09-13T16:57:36;5.90;;;5.13;;
20443;SDS011;10381;53.730;10.010;2022-09-13T17:01:37;8.73;;;5.43;;
20443;SDS011;10381;53.730;10.010;2022-09-13T17:05:37;8.33;;;4.20;;
20443;SDS011;10381;53.730;10.010;2022-09-13T17:09:38;5.10;;;4.63;;
20443;SDS011;10381;53.730;10.010;2022-09-13T17:13:39;8.52;;;5.20;;
20443;SDS011;10381;53.730;10.010;2022-09-13T17:17:40;5.40;;;4.63;;
20443;SDS011;10381;53.730;10.010;2022-09-13T17:21:41;6.10;;;5.28;;
20443;SDS011;10381;53.730;10.010;2022-09-13T17:25:45;6.80;;;5.60;;
20443;SDS011;10381;53.730;10.010;2022-09-13T17:29:46;7.10;;;5.43;;
20443;SDS011;10381;53.730;10.010;2022-09-13T17:33:47;9.43;;;5.30;;
20443;SDS011;10381;53.730;10.010;2022-09-13T17:37:48;5.68;;;5.20;;
20443;SDS011;10381;53.730;10.010;2022-09-13T17:41:49;16.33;;;5.60;;
20443;SDS011;10381;53.730;10.010;2022-09-13T17:45:50;12.48;;;5.78;;
20443;SDS011;10381;53.730;10.010;2022-09-13T17:49:50;8.63;;;5.50;;
20443;SDS011;10381;53.730;10.010;2022-09-13T17:53:54;14.93;;;6.45;;
20443;SDS011;10381;53.730;10.010;2022-09-13T17:57:57;11.45;;;6.60;;
20443;SDS011;10381;53.730;10.010;2022-09-13T18:01:57;9.33;;;6.33;;
20443;SDS011;10381;53.730;10.010;2022-09-13T18:06:00;7.18;;;6.57;;
20443;SDS011;10381;53.730;10.010;2022-09-13T18:10:01;7.75;;;5.82;;
20443;SDS011;10381;53.730;10.010;2022-09-13T18:14:01;11.75;;;6.90;;
20443;SDS011;10381;53.730;10.010;2022-09-13T18:18:02;6.93;;;5.97;;
20443;SDS011;10381;53.730;10.010;2022-09-13T18:22:02;10.23;;;5.33;;
20443;SDS011;10381;53.730;10.010;2022-09-13T18:26:04;6.67;;;5.97;;
20443;SDS011;10381;53.730;10.010;2022-09-13T18:30:05;14.60;;;6.95;;
20443;SDS011;10381;53.730;10.010;2022-09-13T18:34:08;9.43;;;6.75;;
20443;SDS011;10381;53.730;10.010;2022-09-13T18:38:12;20.08;;;7.30;;
20443;SDS011;10381;53.730;10.010;2022-09-13T18:42:13;14.77;;;6.50;;
20443;SDS011;10381;53.730;10.010;2022-09-13T18:46:14;11.37;;;7.40;;
20443;SDS011;10381;53.730;10.010;2022-09-13T18:50:16;8.82;;;7.82;;
20443;SDS011;10381;53.730;10.010;2022-09-13T18:54:17;10.77;;;8.43;;
20443;SDS011;10381;53.730;10.010;2022-09-13T18:58:17;10.07;;;7.93;;
20443;SDS011;10381;53.730;10.010;2022-09-13T19:02:18;9.90;;;9.03;;
20443;SDS011;10381;53.730;10.010;2022-09-13T19:10:19;10.50;;;9.57;;
20443;SDS011;10381;53.730;10.010;2022-09-13T19:14:23;9.80;;;8.90;;
20443;SDS011;10381;53.730;10.010;2022-09-13T19:18:26;10.32;;;9.32;;
20443;SDS011;10381;53.730;10.010;2022-09-13T19:22:26;10.90;;;9.90;;
20443;SDS011;10381;53.730;10.010;2022-09-13T19:26:31;11.03;;;10.10;;
20443;SDS011;10381;53.730;10.010;2022-09-13T19:30:33;9.98;;;9.27;;
20443;SDS011;10381;53.730;10.010;2022-09-13T19:34:34;10.70;;;9.32;;
20443;SDS011;10381;53.730;10.010;2022-09-13T19:38:34;11.30;;;10.23;;
20443;SDS011;10381;53.730;10.010;2022-09-13T19:42:35;10.48;;;9.57;;
20443;SDS011;10381;53.730;10.010;2022-09-13T19:46:37;11.10;;;9.97;;
20443;SDS011;10381;53.730;10.010;2022-09-13T19:50:39;11.48;;;10.35;;
20443;SDS011;10381;53.730;10.010;2022-09-13T19:54:39;12.47;;;11.20;;
20443;SDS011;10381;53.730;10.010;2022-09-13T19:58:40;10.83;;;9.83;;
20443;SDS011;10381;53.730;10.010;2022-09-13T20:02:41;11.25;;;9.70;;
20443;SDS011;10381;53.730;10.010;2022-09-13T20:06:43;12.88;;;10.63;;
20443;SDS011;10381;53.730;10.010;2022-09-13T20:10:45;14.00;;;10.23;;
20443;SDS011;10381;53.730;10.010;2022-09-13T20:14:45;11.67;;;10.80;;
20443;SDS011;10381;53.730;10.010;2022-09-13T20:18:46;11.88;;;10.55;;
20443;SDS011;10381;53.730;10.010;2022-09-13T20:22:47;12.20;;;11.13;;
20443;SDS011;10381;53.730;10.010;2022-09-13T20:26:48;16.40;;;12.17;;
20443;SDS011;10381;53.730;10.010;2022-09-13T20:30:51;14.32;;;13.02;;
20443;SDS011;10381;53.730;10.010;2022-09-13T20:34:56;16.92;;;14.25;;
20443;SDS011;10381;53.730;10.010;2022-09-13T20:38:56;16.87;;;15.47;;
20443;SDS011;10381;53.730;10.010;2022-09-13T20:43:02;17.20;;;15.63;;
20443;SDS011;10381;53.730;10.010;2022-09-13T20:47:12;18.45;;;16.77;;
20443;SDS011;10381;53.730;10.010;2022-09-13T20:51:18;17.90;;;16.60;;
20443;SDS011;10381;53.730;10.010;2022-09-13T20:55:24;16.13;;;14.60;;
20443;SDS011;10381;53.730;10.010;2022-09-13T20:59:27;21.30;;;15.80;;
20443;SDS011;10381;53.730;10.010;2022-09-13T21:03:38;20.50;;;18.77;;
20443;SDS011;10381;53.730;10.010;2022-09-13T21:07:45;20.05;;;18.40;;
20443;SDS011;10381;53.730;10.010;2022-09-13T21:12:07;18.90;;;17.40;;
20443;SDS011;10381;53.730;10.010;2022-09-13T21:16:21;18.10;;;16.45;;
20443;SDS011;10381;53.730;10.010;2022-09-13T21:20:31;18.42;;;16.73;;
20443;SDS011;10381;53.730;10.010;2022-09-13T21:28:47;16.33;;;15.00;;
20443;SDS011;10381;53.730;10.010;2022-09-13T21:32:57;21.42;;;19.50;;
20443;SDS011;10381;53.730;10.010;2022-09-13T21:36:58;22.92;;;17.88;;
20443;SDS011;10381;53.730;10.010;2022-09-13T21:41:05;20.30;;;18.17;;
20443;SDS011;10381;53.730;10.010;2022-09-13T21:45:12;24.10;;;21.95;;
20443;SDS011;10381;53.730;10.010;2022-09-13T21:49:19;22.83;;;21.00;;
20443;SDS011;10381;53.730;10.010;2022-09-13T21:53:52;25.60;;;23.40;;
20443;SDS011;10381;53.730;10.010;2022-09-13T21:58:14;27.40;;;25.10;;
20443;SDS011;10381;53.730;10.010;2022-09-13T22:02:17;28.02;;;25.70;;
20443;SDS011;10381;53.730;10.010;2022-09-13T22:06:29;28.42;;;26.20;;
20443;SDS011;10381;53.730;10.010;2022-09-13T22:10:30;28.20;;;25.55;;
20443;SDS011;10381;53.730;10.010;2022-09-13T22:14:34;29.17;;;26.60;;
20443;SDS011;10381;53.730;10.010;2022-09-13T22:18:35;30.53;;;27.97;;
20443;SDS011;10381;53.730;10.010;2022-09-13T22:22:35;30.25;;;27.73;;
20443;SDS011;10381;53.730;10.010;2022-09-13T22:26:36;31.47;;;28.63;;
20443;SDS011;10381;53.730;10.010;2022-09-13T22:30:39;31.77;;;28.45;;
20443;SDS011;10381;53.730;10.010;2022-09-13T22:34:39;33.47;;;30.33;;
20443;SDS011;10381;53.730;10.010;2022-09-13T22:38:40;35.03;;;31.80;;
20443;SDS011;10381;53.730;10.010;2022-09-13T22:42:42;33.85;;;31.13;;
20443;SDS011;10381;53.730;10.010;2022-09-13T22:46:43;32.27;;;29.30;;
20443;SDS011;10381;53.730;10.010;2022-09-13T22:50:50;34.03;;;29.70;;
20443;SDS011;10381;53.730;10.010;2022-09-13T22:54:52;37.10;;;33.75;;
20443;SDS011;10381;53.730;10.010;2022-09-13T22:58:53;33.80;;;30.60;;
20443;SDS011;10381;53.730;10.010;2022-09-13T23:03:13;33.88;;;30.58;;
20443;SDS011;10381;53.730;10.010;2022-09-13T23:07:14;32.40;;;28.93;;
20443;SDS011;10381;53.730;10.010;2022-09-13T23:11:15;32.20;;;29.27;;
20443;SDS011;10381;53.730;10.010;2022-09-13T23:15:25;35.90;;;31.70;;
20443;SDS011;10381;53.730;10.010;2022-09-13T23:19:26;33.55;;;29.83;;
20443;SDS011;10381;53.730;10.010;2022-09-13T23:23:28;31.65;;;28.38;;
20443;SDS011;10381;53.730;10.010;2022-09-13T23:27:28;30.00;;;27.20;;
20443;SDS011;10381;53.730;10.010;2022-09-13T23:31:31;29.95;;;27.25;;
20443;SDS011;10381;53.730;10.010;2022-09-13T23:35:33;31.25;;;28.08;;
20443;SDS011;10381;53.730;10.010;2022-09-13T23:39:35;35.08;;;27.13;;
20443;SDS011;10381;53.730;10.010;2022-09-13T23:43:36;30.67;;;27.95;;
20443;SDS011;10381;53.730;10.010;2022-09-13T23:47:36;38.83;;;26.30;;
20443;SDS011;10381;53.730;10.010;2022-09-13T23:51:37;31.90;;;24.77;;
20443;SDS011;10381;53.730;10.010;2022-09-13T23:55:37;28.33;;;25.63;;
20443;SDS011;10381;53.730;10.010;2022-09-13T23:59:37;29.00;;;26.27;;
